| time (UTC) | temp C | wind direction | speed KPH | gust KPH | rain 1hr cm | rain 24hr cm | rain mn cm | humidity % | barometer mb |
| 20260508220107 | 16 | 205 | 1.6 | 4.8 | 0.00 | 0.00 | 0.00 | 59 | 1008.4 |
| 20260508214546 | 16 | 240 | 3.2 | 8.0 | 0.00 | 0.00 | 0.00 | 56 | 1008.4 |
| 20260508213047 | 17 | 234 | 6.4 | 12.9 | 0.00 | 0.00 | 0.00 | 52 | 1008.4 |
| 20260508211553 | 17 | 255 | 9.7 | 12.9 | 0.00 | 0.00 | 0.00 | 51 | 1008.5 |
| 20260508210054 | 17 | 221 | 6.4 | 11.3 | 0.00 | 0.00 | 0.00 | 54 | 1008.7 |
| 20260508204532 | 17 | 234 | 9.7 | 22.5 | 0.00 | 0.00 | 0.00 | 50 | 1008.9 |
| 20260508203038 | 17 | 259 | 9.7 | 22.5 | 0.00 | 0.00 | 0.00 | 48 | 1009.0 |
| 20260508201539 | 17 | 242 | 14.5 | 22.5 | 0.00 | 0.00 | 0.00 | 49 | 1009.2 |
| 20260508200100 | 17 | 232 | 16.1 | 25.7 | 0.00 | 0.00 | 0.00 | 50 | 1009.3 |
| 20260508194531 | 17 | 221 | 14.5 | 24.1 | 0.00 | 0.00 | 0.00 | 51 | 1009.4 |
| 20260508193024 | 18 | 225 | 14.5 | 25.7 | 0.00 | 0.00 | 0.00 | 47 | 1009.4 |
| 20260508191528 | 17 | 205 | 19.3 | 30.6 | 0.00 | 0.00 | 0.00 | 49 | 1009.7 |
| 20260508190012 | 17 | 221 | 17.7 | 35.4 | 0.00 | 0.00 | 0.00 | 48 | 1009.9 |
| 20260508184509 | 17 | 219 | 14.5 | 32.2 | 0.00 | 0.00 | 0.00 | 52 | 1010.2 |
| 20260508183020 | 17 | 201 | 17.7 | 27.4 | 0.00 | 0.00 | 0.00 | 47 | 1010.2 |
| 20260508181514 | 17 | 190 | 17.7 | 25.7 | 0.00 | 0.00 | 0.00 | 50 | 1010.3 |
| 20260508180124 | 17 | 213 | 16.1 | 27.4 | 0.00 | 0.00 | 0.00 | 51 | 1010.7 |
| 20260508174503 | 17 | 225 | 11.3 | 29.0 | 0.00 | 0.00 | 0.00 | 52 | 1010.8 |
| 20260508173007 | 17 | 254 | 16.1 | 29.0 | 0.00 | 0.00 | 0.00 | 51 | 1010.9 |
| 20260508171506 | 17 | 213 | 14.5 | 19.3 | 0.00 | 0.00 | 0.00 | 50 | 1011.2 |
| 20260508170114 | 17 | 190 | 14.5 | 27.4 | 0.00 | 0.00 | 0.00 | 51 | 1011.6 |
| 20260508164600 | 17 | 204 | 16.1 | 29.0 | 0.00 | 0.00 | 0.00 | 51 | 1012.0 |
| 20260508163109 | 16 | 229 | 11.3 | 20.9 | 0.00 | 0.00 | 0.00 | 54 | 1012.1 |
| 20260508161502 | 16 | 220 | 9.7 | 24.1 | 0.00 | 0.00 | 0.00 | 54 | 1012.2 |
| 20260508160109 | 16 | 223 | 14.5 | 25.7 | 0.00 | 0.00 | 0.00 | 56 | 1012.4 |
| 20260508154619 | 16 | 216 | 17.7 | 27.4 | 0.00 | 0.00 | 0.00 | 53 | 1012.5 |
| 20260508153053 | 15 | 252 | 12.9 | 25.7 | 0.00 | 0.00 | 0.00 | 54 | 1012.6 |
| 20260508151548 | 15 | 237 | 12.9 | 24.1 | 0.00 | 0.00 | 0.00 | 54 | 1012.7 |
| 20260508150047 | 15 | 269 | 8.0 | 22.5 | 0.00 | 0.00 | 0.00 | 57 | 1012.7 |
| 20260508144515 | 14 | 248 | 12.9 | 32.2 | 0.00 | 0.00 | 0.00 | 56 | 1012.9 |
| 20260508143019 | 14 | 213 | 12.9 | 24.1 | 0.00 | 0.00 | 0.00 | 57 | 1013.0 |
| 20260508141529 | 14 | 284 | 12.9 | 24.1 | 0.00 | 0.00 | 0.00 | 54 | 1013.0 |
| 20260508140008 | 13 | 283 | 8.0 | 12.9 | 0.00 | 0.00 | 0.00 | 59 | 1013.2 |
| 20260508134513 | 12 | 240 | 8.0 | 14.5 | 0.00 | 0.00 | 0.00 | 59 | 1013.4 |
| 20260508133019 | 12 | 219 | 4.8 | 12.9 | 0.00 | 0.00 | 0.00 | 62 | 1013.4 |
| 20260508131514 | 11 | 285 | 4.8 | 9.7 | 0.00 | 0.00 | 0.00 | 63 | 1013.5 |
| 20260508130115 | 10 | 218 | 4.8 | 9.7 | 0.00 | 0.00 | 0.00 | 65 | 1013.2 |
| 20260508124605 | 10 | 233 | 4.8 | 9.7 | 0.00 | 0.00 | 0.00 | 65 | 1013.5 |
| 20260508123104 | 9 | 232 | 4.8 | 14.5 | 0.00 | 0.00 | 0.00 | 67 | 1013.3 |
| 20260508121559 | 9 | 211 | 6.4 | 9.7 | 0.00 | 0.00 | 0.00 | 67 | 1013.3 |
| 20260508120100 | 8 | 217 | 4.8 | 9.7 | 0.00 | 0.00 | 0.00 | 68 | 1013.2 |
| 20260508114545 | 8 | 217 | 4.8 | 12.9 | 0.00 | 0.00 | 0.00 | 68 | 1013.1 |
| 20260508113049 | 8 | 181 | 8.0 | 14.5 | 0.00 | 0.00 | 0.00 | 66 | 1012.8 |
| 20260508111552 | 8 | 217 | 6.4 | 17.7 | 0.00 | 0.00 | 0.00 | 65 | 1012.6 |
| 20260508110059 | -17 | 0.0 | 0.0 | 0.00 | 0.00 | 0.00 | 1012.6 | ||
| 20260508104534 | -17 | 0.0 | 0.0 | 0.00 | 0.00 | 0.00 | 1012.5 | ||
| 20260508103038 | -17 | 0.0 | 0.0 | 0.00 | 0.00 | 0.00 | 1012.5 | ||
| 20260508101534 | -17 | 0.0 | 0.0 | 0.00 | 0.00 | 0.00 | 1012.4 | ||
| 20260508100004 | -17 | 0.0 | 0.0 | 0.00 | 0.00 | 0.00 | 1012.5 | ||
| 20260508094509 | -17 | 0.0 | 0.0 | 0.00 | 0.00 | 0.00 | 1012.5 | ||
| 20260508093016 | -17 | 0.0 | 0.0 | 0.00 | 0.00 | 0.00 | 1012.6 | ||
| 20260508091512 | -17 | 0.0 | 0.0 | 0.00 | 0.00 | 0.00 | 1012.6 | ||
| 20260508090119 | -17 | 0.0 | 0.0 | 0.00 | 0.00 | 0.00 | 1012.6 | ||
| 20260508084503 | -17 | 0.0 | 0.0 | 0.00 | 0.00 | 0.00 | 1012.5 | ||
| 20260508083102 | -17 | 0.0 | 0.0 | 0.00 | 0.00 | 0.00 | 1012.7 | ||
| 20260508081608 | -17 | 194 | 6.4 | 14.5 | 0.00 | 0.00 | 0.00 | 1012.7 | |
| 20260508080059 | 8 | 202 | 8.0 | 12.9 | 0.00 | 0.00 | 0.00 | 64 | 1012.7 |
| 20260508074534 | 8 | 185 | 4.8 | 12.9 | 0.00 | 0.00 | 0.00 | 63 | 1012.6 |
| 20260508073035 | 8 | 196 | 8.0 | 14.5 | 0.00 | 0.00 | 0.00 | 62 | 1012.7 |
| 20260508071529 | 8 | 210 | 3.2 | 8.0 | 0.00 | 0.00 | 0.00 | 64 | 1012.9 |
| 20260508070012 | 8 | 245 | 1.6 | 8.0 | 0.00 | 0.00 | 0.00 | 64 | 1013.1 |
| 20260508064510 | 9 | 232 | 6.4 | 12.9 | 0.00 | 0.00 | 0.00 | 62 | 1013.1 |
| 20260508063009 | 9 | 193 | 9.7 | 12.9 | 0.00 | 0.00 | 0.00 | 60 | 1013.1 |
| 20260508061509 | 9 | 223 | 8.0 | 14.5 | 0.00 | 0.00 | 0.00 | 59 | 1013.0 |
| 20260508060116 | 10 | 216 | 11.3 | 16.1 | 0.00 | 0.00 | 0.00 | 57 | 1013.0 |
| 20260508054604 | 10 | 217 | 8.0 | 11.3 | 0.00 | 0.00 | 0.00 | 59 | 1013.2 |
| 20260508053055 | 10 | 207 | 11.3 | 19.3 | 0.00 | 0.00 | 0.00 | 57 | 1013.1 |
| 20260508051605 | 10 | 224 | 9.7 | 16.1 | 0.00 | 0.00 | 0.00 | 57 | 1013.2 |
| 20260508050026 | 10 | 178 | 8.0 | 11.3 | 0.00 | 0.00 | 0.00 | 58 | 1013.2 |
| 20260508044523 | 10 | 191 | 6.4 | 12.9 | 0.00 | 0.00 | 0.00 | 57 | 1013.2 |
| 20260508043021 | 10 | 198 | 6.4 | 11.3 | 0.00 | 0.00 | 0.00 | 57 | 1013.2 |
| 20260508041523 | 10 | 196 | 6.4 | 11.3 | 0.00 | 0.00 | 0.00 | 56 | 1013.2 |
| 20260508040006 | 11 | 188 | 6.4 | 11.3 | 0.00 | 0.00 | 0.00 | 55 | 1013.2 |
| 20260508034508 | 11 | 188 | 6.4 | 8.0 | 0.00 | 0.00 | 0.00 | 55 | 1013.2 |
| 20260508033004 | 11 | 214 | 4.8 | 11.3 | 0.00 | 0.00 | 0.00 | 55 | 1013.3 |
| 20260508031506 | 11 | 217 | 4.8 | 9.7 | 0.00 | 0.00 | 0.00 | 54 | 1013.3 |
| 20260508030113 | 11 | 227 | 3.2 | 4.8 | 0.00 | 0.00 | 0.00 | 57 | 1013.4 |
| 20260508024600 | 11 | 223 | 1.6 | 6.4 | 0.00 | 0.00 | 0.00 | 55 | 1013.3 |
| 20260508023040 | 11 | 198 | 3.2 | 8.0 | 0.00 | 0.00 | 0.00 | 53 | 1013.0 |
| 20260508021541 | 11 | 173 | 3.2 | 8.0 | 0.00 | 0.00 | 0.00 | 53 | 1013.0 |
| 20260508020023 | 11 | 189 | 3.2 | 6.4 | 0.00 | 0.00 | 0.00 | 53 | 1013.1 |
| 20260508014527 | 11 | 159 | 3.2 | 6.4 | 0.00 | 0.00 | 0.00 | 52 | 1012.9 |
| 20260508013034 | 11 | 198 | 3.2 | 6.4 | 0.00 | 0.00 | 0.00 | 52 | 1013.2 |
| 20260508011533 | 11 | 173 | 1.6 | 4.8 | 0.00 | 0.00 | 0.00 | 52 | 1013.0 |
| 20260508010015 | 11 | 189 | 3.2 | 4.8 | 0.00 | 0.00 | 0.00 | 51 | 1013.1 |
| 20260508004534 | 11 | 215 | 0.0 | 3.2 | 0.00 | 0.00 | 0.00 | 55 | 1013.0 |
| 20260508003018 | 11 | 209 | 1.6 | 4.8 | 0.00 | 0.00 | 0.00 | 53 | 1013.0 |
| 20260508001530 | 12 | 217 | 3.2 | 6.4 | 0.00 | 0.00 | 0.00 | 53 | 1012.9 |
| 20260508000119 | 12 | 261 | 3.2 | 6.4 | 0.00 | 0.00 | 0.00 | 47 | 1012.9 |
| 20260507234502 | 13 | 229 | 3.2 | 6.4 | 0.00 | 0.00 | 0.00 | 47 | 1012.7 |
| 20260507233006 | 12 | 273 | 3.2 | 11.3 | 0.00 | 0.00 | 0.00 | 49 | 1012.8 |
| 20260507231509 | 13 | 254 | 6.4 | 11.3 | 0.00 | 0.00 | 0.00 | 46 | 1012.8 |
| 20260507230116 | 13 | 284 | 6.4 | 14.5 | 0.00 | 0.00 | 0.00 | 44 | 1012.8 |
| 20260507224555 | 13 | 306 | 3.2 | 11.3 | 0.00 | 0.00 | 0.00 | 44 | 1012.8 |
| 20260507223047 | 13 | 202 | 6.4 | 11.3 | 0.00 | 0.00 | 0.00 | 43 | 1012.9 |
| 20260507221547 | 13 | 251 | 6.4 | 11.3 | 0.00 | 0.00 | 0.00 | 45 | 1013.0 |